sensor_id;sensor_type;location;lat;lon;timestamp;temperature;humidity
18240;DHT22;9244;50.828;4.718;2023-02-05T14:24:52;23.60;96.80
18240;DHT22;9244;50.828;4.718;2023-02-05T14:33:02;21.40;97.80
18240;DHT22;9244;50.828;4.718;2023-02-05T14:35:31;21.30;98.00
18240;DHT22;9244;50.828;4.718;2023-02-05T14:38:13;21.20;98.10
18240;DHT22;9244;50.828;4.718;2023-02-05T14:40:40;21.20;98.00
18240;DHT22;9244;50.828;4.718;2023-02-05T14:47:34;21.00;98.00
18240;DHT22;9244;50.828;4.718;2023-02-05T14:50:09;20.80;98.50
18240;DHT22;9244;50.828;4.718;2023-02-05T14:52:44;20.40;99.00
18240;DHT22;9244;50.828;4.718;2023-02-05T14:55:17;20.30;99.20
18240;DHT22;9244;50.828;4.718;2023-02-05T15:03:19;20.40;99.20
18240;DHT22;9244;50.828;4.718;2023-02-05T15:05:57;20.50;99.50
18240;DHT22;9244;50.828;4.718;2023-02-05T15:22:04;20.60;98.80
18240;DHT22;9244;50.828;4.718;2023-02-05T15:24:32;20.60;98.80
18240;DHT22;9244;50.828;4.718;2023-02-05T15:27:06;20.50;98.60
18240;DHT22;9244;50.828;4.718;2023-02-05T15:29:46;20.50;98.60
18240;DHT22;9244;50.828;4.718;2023-02-05T15:34:51;20.40;98.60
18240;DHT22;9244;50.828;4.718;2023-02-05T15:37:21;20.40;98.50
18240;DHT22;9244;50.828;4.718;2023-02-05T15:39:54;20.40;98.70
18240;DHT22;9244;50.828;4.718;2023-02-05T15:42:36;20.30;98.70
18240;DHT22;9244;50.828;4.718;2023-02-05T15:48:01;20.20;98.60
18240;DHT22;9244;50.828;4.718;2023-02-05T15:50:29;20.20;98.50
18240;DHT22;9244;50.828;4.718;2023-02-05T15:52:56;20.10;98.50
18240;DHT22;9244;50.828;4.718;2023-02-05T15:55:22;20.10;98.50
18240;DHT22;9244;50.828;4.718;2023-02-05T15:57:56;20.00;98.60
18240;DHT22;9244;50.828;4.718;2023-02-05T16:00:26;20.00;98.60
18240;DHT22;9244;50.828;4.718;2023-02-05T16:03:03;19.90;98.60
18240;DHT22;9244;50.828;4.718;2023-02-05T16:05:31;19.90;98.50
18240;DHT22;9244;50.828;4.718;2023-02-05T16:07:57;19.80;98.50
18240;DHT22;9244;50.828;4.718;2023-02-05T16:10:31;19.80;98.60
18240;DHT22;9244;50.828;4.718;2023-02-05T16:13:15;19.80;98.40
18240;DHT22;9244;50.828;4.718;2023-02-05T16:15:42;19.70;98.60
18240;DHT22;9244;50.828;4.718;2023-02-05T16:18:38;19.70;98.60
18240;DHT22;9244;50.828;4.718;2023-02-05T16:21:12;19.60;98.50
18240;DHT22;9244;50.828;4.718;2023-02-05T16:24:05;19.60;98.60
18240;DHT22;9244;50.828;4.718;2023-02-05T16:26:45;19.60;98.60
18240;DHT22;9244;50.828;4.718;2023-02-05T16:29:25;19.50;98.60
18240;DHT22;9244;50.828;4.718;2023-02-05T16:32:02;19.50;98.60
18240;DHT22;9244;50.828;4.718;2023-02-05T16:34:30;19.50;98.60
18240;DHT22;9244;50.828;4.718;2023-02-05T16:36:59;19.50;98.80
18240;DHT22;9244;50.828;4.718;2023-02-05T16:39:30;19.40;98.70
18240;DHT22;9244;50.828;4.718;2023-02-05T16:42:06;19.40;98.70
18240;DHT22;9244;50.828;4.718;2023-02-05T16:44:37;19.30;98.70
18240;DHT22;9244;50.828;4.718;2023-02-05T16:49:37;19.30;98.90
18240;DHT22;9244;50.828;4.718;2023-02-05T16:52:03;19.30;98.80
